createdAt,value
2022-09-17T00:03:38.215Z,81.99
2022-09-17T00:08:45.114Z,81.94
2022-09-17T00:13:52.485Z,81.6
2022-09-17T00:18:59.504Z,80.89
2022-09-17T00:24:18.112Z,80.55
2022-09-17T00:29:25.360Z,80.69
2022-09-17T00:34:32.720Z,81.2
2022-09-17T00:39:39.780Z,81.75
2022-09-17T00:44:48.053Z,82.36
2022-09-17T00:49:56.747Z,82.65
2022-09-17T00:55:04.317Z,82.62
2022-09-17T01:00:13.031Z,82.9
2022-09-17T01:05:22.414Z,83.21
2022-09-17T01:10:30.859Z,83.45
2022-09-17T01:15:38.844Z,83.81
2022-09-17T01:20:46.958Z,83.99
2022-09-17T01:25:55.386Z,84.06
2022-09-17T01:31:04.185Z,84.24
2022-09-17T01:36:13.658Z,84.46
2022-09-17T01:41:21.574Z,84.55001
2022-09-17T01:46:29.743Z,84.56
2022-09-17T01:51:36.569Z,84.84
2022-09-17T01:56:45.578Z,84.86
2022-09-17T02:01:53.728Z,85.32001
2022-09-17T02:07:02.068Z,85.51001
2022-09-17T02:12:09.282Z,85.43
2022-09-17T02:17:16.476Z,85.76
2022-09-17T02:22:23.693Z,85.32001
2022-09-17T02:27:30.866Z,85.47
2022-09-17T02:32:38.950Z,85.95
2022-09-17T02:37:46.793Z,85.92
2022-09-17T02:42:53.694Z,85.47
2022-09-17T02:48:00.897Z,85.12
2022-09-17T02:53:07.463Z,84.71
2022-09-17T02:58:16.171Z,84.68
2022-09-17T03:03:22.493Z,85.16001
2022-09-17T03:08:30.441Z,85.4
2022-09-17T03:13:37.538Z,85.29
2022-09-17T03:18:45.299Z,84.72
2022-09-17T03:23:53.216Z,85.1
2022-09-17T03:29:01.199Z,85.22
2022-09-17T03:34:09.422Z,85.38
2022-09-17T03:39:17.489Z,85.44001
2022-09-17T03:44:23.927Z,85.43
2022-09-17T03:49:32.566Z,85.30001
2022-09-17T03:54:41.336Z,84.52
2022-09-17T03:59:49.355Z,83.58001
2022-09-17T04:04:57.621Z,82.82001
2022-09-17T04:10:05.770Z,82.86
2022-09-17T04:15:14.050Z,82.91
2022-09-17T04:20:24.862Z,83.01001
2022-09-17T04:25:32.456Z,82.96
2022-09-17T04:30:39.063Z,83.2
2022-09-17T04:35:47.668Z,83.5
2022-09-17T04:40:55.803Z,83.78
2022-09-17T04:46:03.139Z,84.07001
2022-09-17T04:51:12.031Z,84.07001
2022-09-17T04:56:18.833Z,83.74
2022-09-17T05:01:26.706Z,83.30001
2022-09-17T05:06:34.135Z,83.12
2022-09-17T05:11:41.764Z,82.96
2022-09-17T05:16:48.305Z,83.01001
2022-09-17T05:21:56.659Z,83.08001
2022-09-17T05:27:03.933Z,83.04
2022-09-17T05:32:11.776Z,82.88
2022-09-17T05:37:19.297Z,82.87001
2022-09-17T05:42:28.022Z,82.80001
2022-09-17T05:47:35.664Z,82.86
2022-09-17T05:52:44.057Z,82.83
2022-09-17T05:57:51.667Z,82.86
2022-09-17T06:03:00.973Z,82.76
2022-09-17T06:08:08.677Z,82.58
2022-09-17T06:13:16.198Z,82.53
2022-09-17T06:18:23.975Z,82.46
2022-09-17T06:23:31.385Z,82.36
2022-09-17T06:28:38.410Z,81.95
2022-09-17T06:33:45.858Z,81.38
2022-09-17T06:38:53.039Z,80.32001
2022-09-17T06:44:01.208Z,79.04
2022-09-17T06:49:08.812Z,78.88
2022-09-17T06:54:16.615Z,78.6
2022-09-17T06:59:24.298Z,77.74
2022-09-17T07:04:31.604Z,76.55
2022-09-17T07:09:39.956Z,76.4
2022-09-17T07:14:48.522Z,77.29
2022-09-17T07:19:57.759Z,76.06
2022-09-17T07:25:05.541Z,75.57
2022-09-17T07:30:13.497Z,75.57
2022-09-17T07:35:21.087Z,75.09
2022-09-17T07:40:27.782Z,75.21
2022-09-17T07:45:35.574Z,74.26
2022-09-17T07:50:43.828Z,73.34
2022-09-17T07:55:52.238Z,74.25
2022-09-17T08:01:08.879Z,73.1
2022-09-17T08:06:16.891Z,74.15
2022-09-17T08:11:25.028Z,73.87001
2022-09-17T08:16:31.663Z,73.26
2022-09-17T08:21:40.093Z,72.76
2022-09-17T08:26:48.164Z,74.35
2022-09-17T08:31:56.461Z,72.65
2022-09-17T08:37:03.620Z,72.61
2022-09-17T08:42:10.817Z,72.22
2022-09-17T08:47:18.780Z,71.97
2022-09-17T08:52:25.872Z,71.26
2022-09-17T08:57:32.553Z,70.42
2022-09-17T09:02:41.103Z,71.6
2022-09-17T09:07:48.723Z,69.56
2022-09-17T09:12:56.619Z,70.5
2022-09-17T09:18:05.342Z,69.9
2022-09-17T09:23:12.901Z,69.6
2022-09-17T09:28:21.305Z,69.9
2022-09-17T09:33:27.944Z,69.71
2022-09-17T09:38:35.140Z,69.85
2022-09-17T09:43:42.978Z,70.9
2022-09-17T09:48:51.413Z,69.0
2022-09-17T09:53:59.167Z,69.24
2022-09-17T09:59:07.420Z,70.12001
2022-09-17T10:04:15.006Z,68.66001
2022-09-17T10:09:22.818Z,67.84
2022-09-17T10:14:30.020Z,66.62
2022-09-17T10:19:37.056Z,67.67
2022-09-17T10:24:45.568Z,66.98
2022-09-17T10:29:53.372Z,67.17
2022-09-17T10:35:00.626Z,67.0
2022-09-17T10:40:08.268Z,66.38
2022-09-17T10:45:17.007Z,67.7
2022-09-17T10:50:24.251Z,65.84
2022-09-17T10:55:32.357Z,67.05
2022-09-17T11:00:40.962Z,67.92
2022-09-17T11:05:48.473Z,65.28
2022-09-17T11:10:55.614Z,67.67
2022-09-17T11:16:03.665Z,65.54
2022-09-17T11:21:11.356Z,66.68
2022-09-17T11:26:19.500Z,66.74
2022-09-17T11:31:26.993Z,66.86
2022-09-17T11:36:33.829Z,67.34
2022-09-17T11:41:41.611Z,68.6
2022-09-17T11:46:48.834Z,66.69
2022-09-17T11:52:02.751Z,67.34
2022-09-17T11:57:10.017Z,65.64
2022-09-17T12:02:18.136Z,67.53
2022-09-17T12:07:26.302Z,66.49
2022-09-17T12:12:34.519Z,66.49
2022-09-17T12:17:43.175Z,67.44
2022-09-17T12:22:50.504Z,67.43
2022-09-17T12:27:58.992Z,67.39
2022-09-17T12:33:07.135Z,65.85
2022-09-17T12:38:15.431Z,64.21
2022-09-17T12:44:04.095Z,63.32
2022-09-17T12:49:12.075Z,63.72
2022-09-17T12:54:19.137Z,64.92
2022-09-17T12:59:27.533Z,66.99
2022-09-17T13:04:36.649Z,66.14
2022-09-17T13:09:43.989Z,66.98
2022-09-17T13:14:51.778Z,66.63
2022-09-17T13:19:59.626Z,67.92
2022-09-17T13:25:06.813Z,68.3
2022-09-17T13:30:15.178Z,68.51
2022-09-17T13:35:23.519Z,68.12
2022-09-17T13:40:31.421Z,68.54
2022-09-17T13:45:38.867Z,69.19
2022-09-17T13:50:47.663Z,68.80001
2022-09-17T13:55:55.189Z,68.97
2022-09-17T14:01:04.248Z,69.98001
2022-09-17T14:06:14.027Z,70.17
2022-09-17T14:11:23.041Z,70.99
2022-09-17T14:16:32.149Z,71.29
2022-09-17T14:21:39.515Z,71.07
2022-09-17T14:26:47.268Z,71.82
2022-09-17T14:31:54.813Z,71.5
2022-09-17T14:37:02.982Z,71.16001
2022-09-17T14:42:10.173Z,70.39
2022-09-17T14:47:17.379Z,70.31
2022-09-17T14:52:25.204Z,71.56
2022-09-17T14:57:33.063Z,71.58
2022-09-17T15:02:40.263Z,71.74
2022-09-17T15:07:48.615Z,71.72
2022-09-17T15:12:55.943Z,72.42
2022-09-17T15:18:03.138Z,71.65
2022-09-17T15:23:10.465Z,72.56
2022-09-17T15:28:18.236Z,72.79
2022-09-17T15:33:25.502Z,72.68
2022-09-17T15:38:33.654Z,72.29
2022-09-17T15:43:41.917Z,73.11
2022-09-17T15:48:49.848Z,72.47
2022-09-17T15:53:57.375Z,72.71
2022-09-17T15:59:05.882Z,72.67
2022-09-17T16:04:14.228Z,72.8
2022-09-17T16:09:21.679Z,73.68
2022-09-17T16:14:28.798Z,74.47
2022-09-17T16:19:36.612Z,73.71
2022-09-17T16:24:43.202Z,75.09
2022-09-17T16:29:51.553Z,75.42
2022-09-17T16:34:59.591Z,75.02
2022-09-17T16:40:07.746Z,74.4
2022-09-17T16:45:17.099Z,74.66001
2022-09-17T16:50:24.309Z,75.44
2022-09-17T16:55:39.033Z,74.28
2022-09-17T17:01:26.038Z,74.54
2022-09-17T17:06:33.157Z,74.4
2022-09-17T17:11:56.248Z,74.28
2022-09-17T17:17:04.270Z,73.89
2022-09-17T17:22:11.458Z,74.15
2022-09-17T17:27:23.617Z,74.36
2022-09-17T17:32:32.585Z,74.49
2022-09-17T17:37:40.146Z,74.67
2022-09-17T17:42:47.360Z,74.57
2022-09-17T17:47:55.456Z,74.63
2022-09-17T17:53:03.661Z,74.49
2022-09-17T17:58:11.784Z,74.63
2022-09-17T18:03:19.096Z,74.45
2022-09-17T18:08:28.110Z,74.53
2022-09-17T18:13:35.885Z,74.42
2022-09-17T18:18:43.831Z,74.54
2022-09-17T18:23:51.339Z,74.64
2022-09-17T18:28:59.735Z,74.94
2022-09-17T18:34:07.350Z,75.04
2022-09-17T18:39:14.172Z,74.84
2022-09-17T18:44:23.069Z,74.53
2022-09-17T18:49:30.774Z,75.03
2022-09-17T18:54:40.197Z,74.88
2022-09-17T18:59:48.376Z,74.94
2022-09-17T19:04:56.522Z,75.06
2022-09-17T19:10:04.354Z,74.82
2022-09-17T19:15:13.434Z,74.8
2022-09-17T19:20:21.380Z,74.42
2022-09-17T19:25:31.015Z,74.14
2022-09-17T19:30:38.954Z,74.34
2022-09-17T19:35:47.354Z,73.97
2022-09-17T19:40:54.650Z,73.91
2022-09-17T19:46:01.812Z,73.47
2022-09-17T19:51:09.052Z,73.4
2022-09-17T19:56:15.675Z,73.62
2022-09-17T20:01:22.859Z,73.73001
2022-09-17T20:06:31.532Z,73.85
2022-09-17T20:11:39.114Z,73.80001
2022-09-17T20:16:48.203Z,73.86
2022-09-17T20:21:56.996Z,73.86
2022-09-17T20:27:04.523Z,73.9
2022-09-17T20:32:11.825Z,74.06
2022-09-17T20:37:18.455Z,74.18
2022-09-17T20:42:27.129Z,74.24
2022-09-17T20:47:35.483Z,74.01
2022-09-17T20:52:43.760Z,74.34
2022-09-17T20:57:51.674Z,74.38
2022-09-17T21:02:59.819Z,74.61
2022-09-17T21:08:06.712Z,74.52
2022-09-17T21:13:18.317Z,74.8
2022-09-17T21:18:26.307Z,74.97
2022-09-17T21:23:33.436Z,75.08
2022-09-17T21:28:41.235Z,75.0
2022-09-17T21:33:48.421Z,75.21
2022-09-17T21:41:59.690Z,75.2
2022-09-17T21:47:06.243Z,75.13
2022-09-17T21:52:14.126Z,75.28
2022-09-17T21:57:22.599Z,75.41
2022-09-17T22:02:29.363Z,75.45
2022-09-17T22:07:37.209Z,75.16
2022-09-17T22:12:45.133Z,75.48
2022-09-17T22:17:52.837Z,75.23
2022-09-17T22:23:00.102Z,75.45
2022-09-17T22:28:08.776Z,75.6
2022-09-17T22:33:17.683Z,75.55
2022-09-17T22:38:28.636Z,75.41
2022-09-17T22:43:36.540Z,75.95
2022-09-17T22:48:45.920Z,76.08
2022-09-17T22:53:54.403Z,76.13
2022-09-17T22:59:02.495Z,76.22
2022-09-17T23:04:09.826Z,75.92
2022-09-17T23:09:18.533Z,75.94
2022-09-17T23:14:25.749Z,75.98001
2022-09-17T23:19:32.812Z,75.92
2022-09-17T23:24:39.938Z,75.88
2022-09-17T23:29:47.781Z,75.98001
2022-09-17T23:34:55.929Z,75.92
2022-09-17T23:40:05.171Z,75.82
2022-09-17T23:45:12.557Z,75.52
2022-09-17T23:50:19.205Z,75.64
2022-09-17T23:55:27.082Z,75.41
